createdAt,value
2019-06-20T00:03:05.677Z,4.92
2019-06-20T00:07:07.791Z,5.85
2019-06-20T00:11:09.884Z,6.40
2019-06-20T00:15:12.839Z,5.97
2019-06-20T00:19:14.584Z,5.55
2019-06-20T00:23:16.473Z,4.90
2019-06-20T00:27:18.536Z,6.05
2019-06-20T00:31:20.438Z,5.58
2019-06-20T00:35:22.314Z,3.70
2019-06-20T00:39:24.335Z,9.95
2019-06-20T00:43:26.145Z,5.25
2019-06-20T00:47:27.933Z,2.45
2019-06-20T00:51:29.791Z,3.72
2019-06-20T00:55:31.918Z,3.37
2019-06-20T00:59:33.670Z,2.30
2019-06-20T01:03:35.500Z,1.82
2019-06-20T01:07:37.267Z,3.45
2019-06-20T01:11:39.040Z,6.10
2019-06-20T01:15:40.794Z,3.85
2019-06-20T01:19:42.845Z,2.62
2019-06-20T01:23:44.591Z,2.62
2019-06-20T01:27:46.406Z,3.98
2019-06-20T01:31:48.155Z,2.98
2019-06-20T01:35:49.944Z,3.98
2019-06-20T01:39:51.650Z,5.08
2019-06-20T01:43:53.649Z,4.35
2019-06-20T01:47:55.488Z,3.00
2019-06-20T01:51:57.229Z,3.70
2019-06-20T01:55:59.235Z,4.53
2019-06-20T02:00:01.057Z,6.80
2019-06-20T02:04:03.481Z,2.42
2019-06-20T02:08:05.278Z,10.98
2019-06-20T02:12:07.441Z,7.67
2019-06-20T02:16:09.342Z,3.27
2019-06-20T02:20:27.133Z,4.83
2019-06-20T02:24:29.343Z,4.33
2019-06-20T02:28:31.193Z,6.03
2019-06-20T02:32:33.666Z,3.22
2019-06-20T02:36:35.881Z,10.95
2019-06-20T02:40:38.547Z,7.53
2019-06-20T02:44:40.428Z,7.37
2019-06-20T02:48:42.541Z,8.05
2019-06-20T02:52:44.624Z,6.45
2019-06-20T02:56:46.544Z,5.78
2019-06-20T03:00:56.150Z,10.03
2019-06-20T03:04:57.899Z,13.13
2019-06-20T03:08:59.867Z,9.73
2019-06-20T03:13:01.759Z,11.28
2019-06-20T03:17:03.799Z,12.15
2019-06-20T03:21:05.655Z,19.07
2019-06-20T03:25:07.475Z,11.45
2019-06-20T03:29:09.730Z,9.80
2019-06-20T03:33:11.557Z,13.95
2019-06-20T03:37:13.278Z,17.35
2019-06-20T03:41:15.024Z,13.35
2019-06-20T03:45:16.852Z,15.03
2019-06-20T03:49:18.874Z,17.23
2019-06-20T03:53:20.691Z,22.50
2019-06-20T03:57:22.751Z,17.50
2019-06-20T04:01:24.937Z,23.15
2019-06-20T04:05:26.994Z,18.52
2019-06-20T04:09:29.074Z,17.65
2019-06-20T04:13:30.889Z,19.73
2019-06-20T04:17:32.943Z,21.10
2019-06-20T04:21:35.239Z,16.75
2019-06-20T04:25:37.095Z,18.05
2019-06-20T04:29:39.128Z,16.45
2019-06-20T04:33:41.056Z,17.10
2019-06-20T04:37:42.758Z,15.78
2019-06-20T04:41:44.525Z,15.48
2019-06-20T04:45:46.636Z,22.48
2019-06-20T04:49:48.852Z,14.33
2019-06-20T04:53:50.667Z,25.52
2019-06-20T04:57:52.703Z,18.80
2019-06-20T05:01:54.456Z,20.72
2019-06-20T05:05:56.382Z,21.68
2019-06-20T05:09:58.285Z,19.27
2019-06-20T05:14:00.087Z,23.50
2019-06-20T05:18:02.441Z,17.45
2019-06-20T05:22:04.183Z,21.35
2019-06-20T05:26:05.976Z,19.77
2019-06-20T05:30:08.385Z,20.48
2019-06-20T05:34:10.417Z,24.63
2019-06-20T05:38:12.164Z,23.20
2019-06-20T05:42:13.924Z,20.88
2019-06-20T05:46:15.811Z,23.55
2019-06-20T05:50:18.291Z,21.07
2019-06-20T05:54:20.445Z,17.57
2019-06-20T05:58:22.771Z,28.62
2019-06-20T06:02:24.581Z,22.93
2019-06-20T06:06:26.928Z,19.32
2019-06-20T06:10:28.839Z,21.20
2019-06-20T06:14:31.599Z,26.95
2019-06-20T06:18:33.489Z,20.88
2019-06-20T06:22:35.251Z,25.30
2019-06-20T06:26:37.172Z,19.85
2019-06-20T06:30:39.262Z,15.50
2019-06-20T06:34:41.187Z,19.67
2019-06-20T06:38:42.921Z,16.52
2019-06-20T06:42:45.004Z,19.23
2019-06-20T06:46:54.176Z,17.37
2019-06-20T06:50:51.996Z,17.48
2019-06-20T06:54:53.807Z,16.45
2019-06-20T06:58:55.844Z,18.12
2019-06-20T07:02:58.035Z,17.80
2019-06-20T07:07:00.105Z,16.50
2019-06-20T07:11:01.867Z,12.00
2019-06-20T07:15:04.507Z,19.77
2019-06-20T07:19:06.651Z,15.65
2019-06-20T07:23:08.449Z,14.28
2019-06-20T07:27:10.357Z,18.40
2019-06-20T07:31:12.190Z,13.53
2019-06-20T07:35:14.346Z,15.08
2019-06-20T07:39:16.133Z,16.73
2019-06-20T07:43:18.029Z,11.68
2019-06-20T07:47:21.055Z,13.13
2019-06-20T07:51:22.870Z,15.83
2019-06-20T07:55:25.153Z,15.25
2019-06-20T07:59:26.999Z,15.95
2019-06-20T08:03:28.789Z,15.53
2019-06-20T08:07:35.541Z,16.48
2019-06-20T08:11:37.701Z,12.70
2019-06-20T08:15:39.951Z,16.07
2019-06-20T08:19:42.869Z,14.38
2019-06-20T08:23:45.399Z,12.58
2019-06-20T08:27:47.781Z,14.98
2019-06-20T08:31:49.786Z,11.88
2019-06-20T08:35:51.616Z,12.07
2019-06-20T08:39:56.756Z,8.70
2019-06-20T08:43:58.467Z,7.15
2019-06-20T08:48:02.693Z,9.90
2019-06-20T08:52:05.608Z,11.65
2019-06-20T08:56:07.733Z,5.30
2019-06-20T09:00:09.960Z,7.50
2019-06-20T09:04:12.096Z,10.78
2019-06-20T09:08:14.360Z,5.03
2019-06-20T09:12:16.511Z,9.55
2019-06-20T09:16:24.517Z,7.45
2019-06-20T09:20:22.565Z,5.22
2019-06-20T09:24:24.452Z,7.60
2019-06-20T09:28:26.588Z,14.35
2019-06-20T09:32:29.086Z,6.25
2019-06-20T09:36:30.881Z,4.45
2019-06-20T09:40:36.480Z,6.17
2019-06-20T09:44:38.664Z,5.25
2019-06-20T09:48:40.598Z,4.22
2019-06-20T09:52:43.349Z,5.70
2019-06-20T09:56:48.491Z,9.90
2019-06-20T10:00:50.861Z,5.78
2019-06-20T10:04:54.437Z,5.67
2019-06-20T10:08:56.598Z,5.25
2019-06-20T10:12:58.473Z,4.95
2019-06-20T10:17:00.357Z,6.80
2019-06-20T10:21:02.372Z,5.40
2019-06-20T10:25:04.683Z,4.35
2019-06-20T10:29:06.417Z,5.22
2019-06-20T10:33:08.376Z,6.62
2019-06-20T10:37:10.199Z,6.60
2019-06-20T10:41:12.056Z,5.70
2019-06-20T10:45:15.329Z,6.22
2019-06-20T10:49:17.760Z,6.47
2019-06-20T10:53:19.809Z,5.67
2019-06-20T10:57:21.701Z,6.15
2019-06-20T11:01:23.460Z,4.10
2019-06-20T11:05:25.285Z,4.12
2019-06-20T11:09:27.186Z,4.75
2019-06-20T11:13:29.107Z,6.00
2019-06-20T11:17:31.175Z,6.45
2019-06-20T11:21:47.617Z,7.60
2019-06-20T11:25:51.893Z,5.03
2019-06-20T11:29:54.699Z,4.55
2019-06-20T11:33:57.072Z,3.17
2019-06-20T11:38:01.121Z,6.03
2019-06-20T11:42:02.984Z,5.08
2019-06-20T11:46:04.968Z,5.45
2019-06-20T11:50:08.713Z,3.95
2019-06-20T11:54:10.530Z,4.60
2019-06-20T11:58:13.149Z,4.20
2019-06-20T12:02:15.706Z,4.33
2019-06-20T12:06:21.077Z,5.22
2019-06-20T12:10:25.487Z,5.22
2019-06-20T12:14:29.085Z,4.83
2019-06-20T12:18:31.331Z,4.80
2019-06-20T12:22:33.368Z,4.58
2019-06-20T12:26:35.872Z,4.35
2019-06-20T12:30:39.850Z,4.00
2019-06-20T12:34:42.939Z,8.68
2019-06-20T12:38:46.151Z,8.25
2019-06-20T12:42:57.429Z,7.33
2019-06-20T12:46:59.557Z,5.03
2019-06-20T12:51:04.586Z,6.70
2019-06-20T12:55:14.558Z,5.08
2019-06-20T12:59:25.357Z,4.50
2019-06-20T13:03:44.118Z,4.10
2019-06-20T13:07:51.435Z,5.22
2019-06-20T13:11:53.799Z,5.05
2019-06-20T13:15:56.157Z,9.15
2019-06-20T13:19:58.250Z,5.85
2019-06-20T13:24:00.068Z,7.20
2019-06-20T13:28:21.196Z,9.68
2019-06-20T13:32:35.687Z,9.73
2019-06-20T13:36:42.822Z,11.45
2019-06-20T13:40:50.786Z,9.63
2019-06-20T13:44:58.351Z,11.78
2019-06-20T13:49:03.173Z,10.23
2019-06-20T13:53:05.006Z,13.50
2019-06-20T13:57:06.883Z,14.03
2019-06-20T14:01:09.208Z,12.20
2019-06-20T14:05:12.154Z,13.58
2019-06-20T14:09:14.294Z,19.52
2019-06-20T14:13:19.534Z,14.87
2019-06-20T14:17:20.201Z,14.53
2019-06-20T14:21:22.001Z,17.65
2019-06-20T14:25:24.224Z,17.17
2019-06-20T14:29:26.812Z,13.75
2019-06-20T14:33:31.798Z,19.32
2019-06-20T14:37:33.095Z,11.93
2019-06-20T14:41:35.208Z,11.22
2019-06-20T14:45:38.143Z,14.70
2019-06-20T14:49:39.971Z,15.90
2019-06-20T14:53:43.912Z,14.25
2019-06-20T14:57:46.972Z,13.48
2019-06-20T15:01:50.635Z,13.55
2019-06-20T15:05:52.698Z,14.38
2019-06-20T15:09:55.266Z,20.05
2019-06-20T15:13:57.866Z,13.70
2019-06-20T15:17:59.795Z,13.90
2019-06-20T15:22:01.628Z,21.70
2019-06-20T15:26:03.503Z,21.23
2019-06-20T15:30:06.075Z,15.78
2019-06-20T15:34:08.297Z,14.58
2019-06-20T15:38:10.952Z,16.02
2019-06-20T15:42:13.655Z,17.20
2019-06-20T15:46:15.776Z,17.48
2019-06-20T15:50:17.951Z,17.65
2019-06-20T15:54:23.667Z,11.73
2019-06-20T15:58:24.936Z,12.05
2019-06-20T16:02:27.423Z,11.83
2019-06-20T16:06:29.386Z,10.68
2019-06-20T16:10:31.300Z,7.72
2019-06-20T16:14:33.416Z,6.22
2019-06-20T16:18:35.513Z,8.50
2019-06-20T16:22:37.673Z,4.50
2019-06-20T16:26:47.401Z,4.00
2019-06-20T16:30:49.293Z,13.55
2019-06-20T16:34:51.710Z,7.58
2019-06-20T16:38:54.028Z,7.58
2019-06-20T16:42:55.831Z,7.30
2019-06-20T16:46:57.799Z,8.15
2019-06-20T16:50:59.846Z,4.80
2019-06-20T16:55:01.594Z,2.85
2019-06-20T16:59:03.502Z,3.72
2019-06-20T17:03:05.484Z,5.30
2019-06-20T17:07:07.617Z,6.55
2019-06-20T17:11:09.356Z,12.53
2019-06-20T17:15:12.218Z,7.58
2019-06-20T17:19:14.245Z,5.85
2019-06-20T17:23:15.915Z,4.42
2019-06-20T17:27:18.007Z,2.80
2019-06-20T17:31:20.516Z,5.00
2019-06-20T17:35:22.393Z,6.60
2019-06-20T17:39:24.128Z,4.72
2019-06-20T17:43:26.228Z,4.95
2019-06-20T17:47:28.443Z,5.55
2019-06-20T17:51:30.581Z,4.75
2019-06-20T17:55:32.637Z,3.27
2019-06-20T17:59:34.686Z,6.50
2019-06-20T18:03:36.803Z,59.67
2019-06-20T18:07:38.899Z,11.22
2019-06-20T18:11:41.297Z,5.97
2019-06-20T18:15:43.131Z,7.08
2019-06-20T18:19:45.539Z,5.47
2019-06-20T18:23:47.587Z,5.15
2019-06-20T18:27:49.385Z,4.37
2019-06-20T18:31:51.156Z,4.67
2019-06-20T18:35:52.909Z,10.05
2019-06-20T18:39:54.631Z,3.52
2019-06-20T18:43:56.384Z,5.40
2019-06-20T18:47:58.791Z,4.60
2019-06-20T18:52:00.702Z,9.25
2019-06-20T18:56:03.014Z,4.42
2019-06-20T19:00:05.138Z,4.95
2019-06-20T19:04:07.145Z,3.98
2019-06-20T19:08:09.235Z,5.50
2019-06-20T19:12:11.587Z,4.42
2019-06-20T19:16:13.994Z,4.22
2019-06-20T19:20:16.346Z,6.42
2019-06-20T19:24:18.069Z,5.20
2019-06-20T19:28:20.151Z,5.53
2019-06-20T19:32:22.373Z,10.82
2019-06-20T19:36:24.574Z,6.83
2019-06-20T19:40:30.593Z,13.68
2019-06-20T19:44:33.832Z,8.05
2019-06-20T19:48:36.974Z,8.63
2019-06-20T19:52:39.567Z,8.03
2019-06-20T19:56:41.461Z,5.72
2019-06-20T20:00:44.163Z,6.28
2019-06-20T20:04:47.037Z,8.10
2019-06-20T20:08:49.653Z,6.40
2019-06-20T20:12:51.469Z,8.30
2019-06-20T20:16:53.984Z,6.45
2019-06-20T20:20:55.845Z,9.93
2019-06-20T20:24:58.698Z,7.47
2019-06-20T20:29:01.881Z,9.90
2019-06-20T20:33:04.886Z,8.60
2019-06-20T20:37:07.486Z,8.10
2019-06-20T20:41:09.704Z,8.20
2019-06-20T20:45:12.505Z,7.90
2019-06-20T20:49:15.017Z,10.58
2019-06-20T20:53:17.409Z,8.60
2019-06-20T20:57:20.377Z,9.25
2019-06-20T21:01:29.554Z,12.80
2019-06-20T21:05:32.126Z,11.25
2019-06-20T21:09:34.268Z,13.32
2019-06-20T21:13:37.224Z,12.85
2019-06-20T21:17:39.509Z,11.40
2019-06-20T21:21:41.593Z,11.30
2019-06-20T21:25:43.843Z,15.38
2019-06-20T21:29:45.828Z,11.12
2019-06-20T21:33:47.795Z,16.30
2019-06-20T21:37:50.332Z,11.53
2019-06-20T21:41:52.787Z,12.37
2019-06-20T21:45:55.466Z,14.38
2019-06-20T21:49:58.134Z,15.00
2019-06-20T21:53:59.991Z,18.75
2019-06-20T21:58:02.200Z,14.35
2019-06-20T22:02:05.562Z,20.20
2019-06-20T22:06:20.201Z,14.55
2019-06-20T22:10:11.972Z,11.08
2019-06-20T22:17:32.816Z,12.70
2019-06-20T22:21:35.935Z,9.95
2019-06-20T22:25:38.108Z,17.55
2019-06-20T22:29:40.242Z,10.15
2019-06-20T22:33:42.374Z,8.93
2019-06-20T22:37:44.190Z,10.75
2019-06-20T22:41:46.351Z,9.58
2019-06-20T22:45:48.295Z,10.08
2019-06-20T22:49:50.426Z,10.38
2019-06-20T22:53:52.650Z,11.90
2019-06-20T22:57:54.759Z,13.62
2019-06-20T23:01:57.725Z,10.35
2019-06-20T23:05:59.980Z,14.20
2019-06-20T23:10:10.624Z,18.60
2019-06-20T23:14:06.521Z,25.95
2019-06-20T23:18:11.110Z,26.62
2019-06-20T23:22:13.128Z,18.27
2019-06-20T23:26:15.170Z,17.80
2019-06-20T23:30:19.305Z,20.90
2019-06-20T23:34:21.792Z,15.72
2019-06-20T23:38:24.130Z,15.78
2019-06-20T23:42:25.897Z,14.40
2019-06-20T23:46:28.305Z,16.62
2019-06-20T23:50:30.233Z,21.02
2019-06-20T23:54:33.456Z,21.65
2019-06-20T23:58:35.222Z,17.37
